• Join FlightAware (Why Join?)
  • Login
  • US Flag 
06:43PM EDT


 

Airport Tracker/Info


-or-


 

Live Flight TrackerFlight Track Log ✈ SWA1719 ✈ 19-Apr-2013 ✈ KHOU - KTPA

Flight Track Log - Related Links

Times and Time Zones

All times are in EDT time to prevent confusion due to time zone crossing. See the SWA1719 flight status page for this flight to view local times or setup timezone preferences in your user account.

Time Position Orientation Groundspeed Altitude Reporting Facility
EDT Latitude Longitude Course Direction KTS MPH feet Rate Location/Type
12:04PM 29.6519 -95.2872 354° North 154 177 1,100  Level Houston Center
12:05PM 29.6922 -95.2919 354° North 201 231 4,100 2,400 Climbing Houston Center
12:06PM 29.6928 -95.2531 89° East 232 267 4,900 1,740 Climbing Houston Center
12:07PM 29.6511 -95.1681 119° Southeast 306 352 7,000 2,460 Climbing Houston Center
12:08PM 29.6436 -95.0686 95° East 312 359 10,100 3,000 Climbing Houston Center
12:09PM 29.6556 -94.9519 83° East 365 420 13,200 2,880 Climbing Houston Center
12:10PM 29.6681 -94.8314 83° East 377 434 16,100 2,520 Climbing Houston Center
12:11PM 29.6825 -94.6994 83° East 402 463 18,500 2,520 Climbing Houston Center
12:12PM 29.7006 -94.5322 83° East 432 497 21,400 2,460 Climbing Houston Center
12:13PM 29.7153 -94.3856 83° East 459 528 23,700 2,040 Climbing Houston Center
12:15PM 29.6914 -94.0778 95° East 488 562 27,800 1,860 Climbing Houston Center
12:16PM 29.6853 -93.9156 92° East 512 589 29,500 1,560 Climbing Houston Center
12:17PM 29.6839 -93.7483 91° East 523 602 31,100 1,500 Climbing Houston Center
12:18PM 29.6828 -93.5431 90° East 536 617 32,600 1,320 Climbing Houston Center
12:19PM 29.6775 -93.3650 92° East 552 635 33,900 1,140 Climbing Houston Center
12:20PM 29.6756 -93.1733 91° East 556 640 35,000 1,140 Climbing Houston Center
12:21PM 29.6731 -92.9906 91° East 569 655 36,300 1,260 Climbing Houston Center
12:22PM 29.6703 -92.8092 91° East 571 657 37,700 1,260 Climbing Houston Center
12:23PM 29.6681 -92.6294 91° East 567 652 39,000 600 Climbing Houston Center
12:24PM 29.6647 -92.4556 91° East 554 638 39,000  Level Houston Center
12:25PM 29.6392 -92.2475 98° East 550 633 39,000  Level Houston Center
12:26PM 29.6042 -92.0814 104° East 541 623 39,000  Level Houston Center
12:27PM 29.5697 -91.9136 103° East 541 623 39,000  Level Houston Center
12:28PM 29.5350 -91.7492 104° East 535 616 39,000  Level Houston Center
12:30PM 29.4969 -91.5697 104° East 528 608 39,000  Level Houston Center
12:31PM 29.4625 -91.4069 104° East 526 605 39,000  Level Houston Center
12:32PM 29.4269 -91.2458 104° East 524 603 39,000  Level Houston Center
12:33PM 29.3933 -91.0853 103° East 521 600 39,000  Level Houston Center
12:34PM 29.3500 -90.8886 104° East 529 609 39,000  Level Houston Center
12:35PM 29.3144 -90.7228 104° East 536 617 39,000 -60 Level Houston Center
12:36PM 29.2778 -90.5583 104° East 536 617 38,900  Descending Houston Center
12:37PM 29.2419 -90.3933 104° East 536 617 39,000  Climbing Houston Center
12:38PM 29.2047 -90.2292 105° East 535 616 39,000  Level Houston Center
12:39PM 29.1606 -90.0292 104° East 543 625 39,000  Level Houston Center
12:40PM 29.1281 -89.8617 102° East 545 627 39,000  Level Houston Center
12:41PM 29.0925 -89.6944 104° East 544 626 39,000  Level Houston Center
12:42PM 29.0586 -89.5261 103° East 546 628 39,000  Level Houston Center
12:43PM 29.0231 -89.3594 104° East 544 626 39,000  Level Houston Center
12:44PM 28.9886 -89.1939 103° East 542 624 39,000  Level Houston Center
12:45PM 28.9475 -88.9936 103° East 541 623 39,000  Level Houston Center
12:46PM 28.9111 -88.8281 104° East 538 619 39,000  Level Houston Center
12:47PM 28.8753 -88.6628 104° East 538 619 39,000  Level Houston Center
12:48PM 28.8294 -88.5028 108° East 532 612 39,000  Level Houston Center
12:49PM 28.7850 -88.3428 108° East 531 611 39,000  Level Houston Center
12:50PM 28.7319 -88.1519 108° East 528 608 39,000  Level Houston Center
12:51PM 28.6872 -87.9925 108° East 525 604 39,000  Level Houston Center
12:52PM 28.6436 -87.8358 108° East 521 600 39,000  Level Houston Center
12:53PM 28.5981 -87.6794 108° East 522 601 39,000  Level Houston Center
12:54PM 28.5639 -87.5556 107° East 498 573 39,000  Level Jacksonville Center
12:55PM 28.5175 -87.3975 108° East 519 597 39,000  Level Jacksonville Center
12:56PM 28.4728 -87.2419 108° East 519 597 39,000  Level Jacksonville Center
12:57PM 28.4297 -87.0914 108° East 519 597 39,000  Level Jacksonville Center
12:58PM 28.3847 -86.9386 108° East 506 582 39,000  Level Jacksonville Center
12:59PM 28.3414 -86.7836 108° East 511 588 39,000  Level Jacksonville Center
01:00PM 28.2958 -86.6311 109° East 505 581 39,000  Level Jacksonville Center
01:01PM 28.2483 -86.4739 109° East 513 590 39,000  Level Jacksonville Center
01:02PM 28.2044 -86.3217 108° East 514 592 39,000  Level Jacksonville Center
01:03PM 28.1583 -86.1694 109° East 514 592 39,000  Level Jacksonville Center
01:04PM 28.1119 -86.0150 109° East 514 592 39,000  Level Jacksonville Center
01:05PM 28.0658 -85.8536 108° East 514 592 39,000  Level Jacksonville Center
01:06PM 28.0169 -85.7064 111° Southeast 514 592 39,000 -360 Level Jacksonville Center
01:07PM 27.9722 -85.5525 108° East 509 586 38,300 -2,040 Descending Jacksonville Center
01:09PM 27.8931 -85.2811 108° East 513 590 33,300 -2,340 Descending Houston Center
01:09PM 27.8797 -85.1875 99° East 517 595 33,000 -240 Descending Miami Center
01:10PM 27.8619 -85.0244 97° East 511 588 33,000  Level Miami Center
01:11PM 27.8522 -84.8642 94° East 511 588 33,000  Level Miami Center
01:12PM 27.8611 -84.7031 86° East 516 594 33,000  Level Miami Center
01:13PM 27.8678 -84.5392 87° East 516 594 33,000  Level Miami Center
01:14PM 27.8725 -84.3753 88° East 522 601 33,000  Level Miami Center
01:15PM 27.8744 -84.2161 89° East 515 593 33,000 -1,440 Level Miami Center
01:16PM 27.8889 -84.0550 84° East 515 593 30,200 -3,300 Descending Miami Center
01:17PM 27.8906 -83.8933 89° East 515 593 26,400 -3,300 Descending Miami Center
01:18PM 27.8939 -83.7364 89° East 515 593 23,600 -3,420 Descending Miami Center
01:19PM 27.8989 -83.5864 88° East 499 574 19,600 -3,600 Descending Miami Center
01:20PM 27.9056 -83.4458 87° East 470 541 16,400 -3,360 Descending Miami Center
01:21PM 27.9050 -83.3169 90° East 437 503 12,900 -2,580 Descending Miami Center
01:22PM 27.9125 -83.1975 86° East 401 461 11,300 -1,500 Descending Miami Center
01:23PM 27.9375 -83.1050 73° East 338 389 10,000 -1,380 Descending Miami Center
01:24PM 27.9744 -83.0178 64° Northeast 310 357 8,600 -1,500 Descending Miami Center
01:25PM 28.0136 -82.9353 62° Northeast 304 350 7,000 -960 Descending Miami Center
01:26PM 28.0506 -82.8481 64° Northeast 298 343 6,700 -480 Descending Miami Center
01:27PM 28.0667 -82.8000 69° East 275 316 6,300 -840 Descending Tampa TRACON
01:28PM 28.0667 -82.7167 90° East 257 296 5,400 -660 Descending Tampa TRACON
01:29PM 28.0667 -82.6333 90° East 252 290 5,000 -600 Descending Tampa TRACON
01:30PM 28.1333 -82.6167 12° North 256 295 4,200 -1,020 Descending Tampa TRACON
01:31PM 28.1667 -82.5667 53° Northeast 240 276 3,100 -900 Descending Tampa TRACON
01:32PM 28.1167 -82.5167 139° Southeast 217 250 2,500 -720 Descending Tampa TRACON
01:33PM 28.0667 -82.5333 196° South 164 189 1,700 -720 Descending Tampa TRACON
01:34PM 28.0333 -82.5333 180° South 128 147 1,000 -660 Descending Tampa TRACON
01:35PM 28.0000 -82.5333 180° South 128 147 400 -660 Descending Tampa TRACON
01:37PM 27.9755 -82.5332 180° South  Level Estimated
01:44PM 27.9755 -82.5332 19° North  Level Estimated
01:45PM 27.9755 -82.5332 19° North  Level Estimated